• Join FlightAware (Why Join?)
  • Login
  • US Flag 
02:10AM EDT


 

Airport Tracker/Info


-or-


 

Live Flight TrackerFlight Track Log ✈ AMF202 ✈ 01-Jul-2013 ✈ KSAC - KHWD

Flight Track Log - Related Links

Times and Time Zones

All times are in EDT time to prevent confusion due to time zone crossing. See the AMF202 flight status page for this flight to view local times or setup timezone preferences in your user account.

Time Position Orientation Groundspeed Altitude Reporting Facility
EDT Latitude Longitude Course Direction KTS MPH feet Rate Location/Type
11:30PM 38.3333 -121.6000 201° Southwest 153 176 3,700  Level Northern Cal TRACON
11:31PM 38.3000 -121.6167 201° Southwest 157 181 4,400 780 Climbing Northern Cal TRACON
11:32PM 38.2500 -121.6167 180° South 153 176 5,300 780 Climbing Northern Cal TRACON
11:33PM 38.2167 -121.6167 180° South 153 176 6,000 420 Climbing Northern Cal TRACON
11:34PM 38.1944 -121.6250 196° South 155 178 6,000  Level Oakland Center
11:35PM 38.1494 -121.6356 190° South 161 185 6,000  Level Oakland Center
11:36PM 38.1069 -121.6456 190° South 158 182 6,000  Level Oakland Center
11:37PM 38.0639 -121.6564 191° South 157 181 6,000  Level Oakland Center
11:38PM 38.0175 -121.6678 191° South 166 191 6,000  Level Oakland Center
11:39PM 37.9742 -121.6767 189° South 161 185 6,000  Level Oakland Center
11:40PM 37.9267 -121.6869 190° South 167 192 6,000  Level Oakland Center
11:41PM 37.8867 -121.7142 208° Southwest 165 190 6,000  Level Oakland Center
11:42PM 37.8386 -121.7497 210° Southwest 166 191 6,000 -60 Level Oakland Center
11:43PM 37.8011 -121.7808 213° Southwest 163 188 5,900 -360 Descending Oakland Center
11:44PM 37.7653 -121.8186 220° Southwest 166 191 5,300 -840 Descending Oakland Center
11:45PM 37.7217 -121.8628 219° Southwest 192 221 4,300 -840 Descending Oakland Center
11:46PM 37.6814 -121.9031 218° Southwest 190 219 3,600 -360 Descending Oakland Center
11:47PM 37.6450 -121.9364 216° Southwest 174 200 3,600 -480 Level Oakland Center
11:48PM 37.6189 -121.9769 231° Southwest 166 191 2,700 -900 Descending Oakland Center
11:49PM 37.6142 -122.0364 264° West 163 188 1,800 -960 Descending Oakland Center
11:50PM 37.6364 -122.0775 304° West 155 178 800 -840 Descending Oakland Center
11:51PM 37.6528 -122.1117 301° West 132 152 100 -720 Descending Oakland Center